Neerslag & Bliksem

Reclame

Sneeuwradar

Het weer

[Source: ADDS]
METAR
EBBR 221250Z 24020KT 9999 BKN011 10/08 Q1009 TEMPO 4000 RA =
TAF
EBBR 221101Z 2212/2318 25017G30KT 8000 -RA SCT007 BKN012 PROB40 TEMPO 2212/2312 3500 RA RADZ BKN006 TEMPO 2311/2318 24020G40KT TEMPO 2312/2314 3500 RA SHRA BKN006 BKN012TCU BECMG 2314/2316 FEW015 SCT040 =
SR / SS: 06:39 / 17:12 UTC (Brussels 2017-02-22)
Go to top